createdAt,value
2023-03-16T00:01:29.876Z,1.42
2023-03-16T00:03:56.347Z,1.27
2023-03-16T00:06:25.238Z,1.40
2023-03-16T00:08:52.643Z,1.00
2023-03-16T00:11:22.101Z,1.42
2023-03-16T00:13:48.470Z,2.00
2023-03-16T00:16:17.981Z,1.65
2023-03-16T00:18:44.437Z,1.63
2023-03-16T00:21:20.839Z,1.27
2023-03-16T00:23:47.223Z,1.75
2023-03-16T00:26:13.691Z,1.98
2023-03-16T00:28:45.796Z,1.75
2023-03-16T00:31:12.288Z,1.60
2023-03-16T00:33:39.193Z,1.63
2023-03-16T00:36:13.748Z,1.63
2023-03-16T00:38:55.770Z,1.80
2023-03-16T00:41:22.922Z,1.67
2023-03-16T00:43:57.814Z,1.67
2023-03-16T00:46:26.563Z,1.70
2023-03-16T00:49:03.204Z,1.80
2023-03-16T00:51:36.408Z,2.13
2023-03-16T00:54:05.947Z,1.85
2023-03-16T00:56:32.340Z,1.98
2023-03-16T00:58:59.055Z,2.03
2023-03-16T01:01:32.695Z,1.95
2023-03-16T01:04:02.375Z,2.00
2023-03-16T01:06:31.155Z,1.77
2023-03-16T01:08:57.989Z,2.00
2023-03-16T01:11:25.501Z,1.93
2023-03-16T01:13:56.018Z,2.08
2023-03-16T01:16:23.312Z,2.15
2023-03-16T01:18:50.893Z,2.08
2023-03-16T01:21:21.278Z,2.55
2023-03-16T01:23:48.066Z,2.30
2023-03-16T01:26:18.598Z,2.13
2023-03-16T01:28:44.979Z,2.20
2023-03-16T01:31:16.556Z,1.90
2023-03-16T01:33:51.209Z,2.35
2023-03-16T01:36:20.233Z,2.30
2023-03-16T01:38:51.128Z,2.38
2023-03-16T01:41:17.500Z,1.85
2023-03-16T01:43:53.568Z,1.98
2023-03-16T01:46:25.684Z,2.35
2023-03-16T01:49:21.419Z,2.00
2023-03-16T01:52:12.558Z,2.15
2023-03-16T01:55:32.054Z,2.17
2023-03-16T01:58:20.713Z,2.40
2023-03-16T02:00:47.101Z,2.22
2023-03-16T02:03:55.494Z,2.30
2023-03-16T02:06:27.014Z,2.55
2023-03-16T02:08:55.377Z,2.20
2023-03-16T02:11:27.951Z,2.33
2023-03-16T02:14:02.134Z,2.55
2023-03-16T02:16:33.123Z,2.53
2023-03-16T02:19:02.288Z,2.08
2023-03-16T02:21:48.933Z,3.30
2023-03-16T02:24:18.067Z,2.05
2023-03-16T02:27:04.487Z,2.30
2023-03-16T02:30:14.291Z,2.10
2023-03-16T02:32:46.010Z,2.30
2023-03-16T02:35:21.425Z,1.95
2023-03-16T02:37:47.971Z,2.47
2023-03-16T02:40:30.899Z,2.13
2023-03-16T02:43:20.262Z,2.20
2023-03-16T02:45:53.515Z,2.00
2023-03-16T02:54:06.838Z,2.13
2023-03-16T02:56:36.218Z,1.57
2023-03-16T02:59:02.827Z,2.00
2023-03-16T03:01:31.799Z,2.47
2023-03-16T03:04:02.061Z,2.60
2023-03-16T03:06:28.981Z,2.30
2023-03-16T03:08:56.312Z,2.43
2023-03-16T03:11:25.457Z,2.83
2023-03-16T03:13:52.102Z,2.78
2023-03-16T03:16:21.271Z,2.58
2023-03-16T03:18:48.630Z,2.53
2023-03-16T03:21:15.333Z,2.20
2023-03-16T03:23:50.611Z,2.30
2023-03-16T03:26:17.284Z,2.78
2023-03-16T03:28:46.889Z,2.38
2023-03-16T03:31:23.446Z,2.67
2023-03-16T03:33:56.331Z,2.40
2023-03-16T03:36:22.658Z,2.42
2023-03-16T03:38:54.713Z,2.28
2023-03-16T03:41:22.475Z,2.20
2023-03-16T03:43:49.400Z,2.78
2023-03-16T03:46:18.941Z,2.10
2023-03-16T03:48:45.426Z,2.10
2023-03-16T03:51:11.819Z,3.10
2023-03-16T03:53:48.742Z,2.40
2023-03-16T03:56:15.142Z,2.60
2023-03-16T03:58:44.986Z,2.53
2023-03-16T04:01:14.488Z,2.25
2023-03-16T04:03:47.244Z,2.13
2023-03-16T04:06:16.625Z,2.70
2023-03-16T04:08:43.023Z,2.40
2023-03-16T04:11:09.971Z,2.27
2023-03-16T04:13:39.321Z,2.53
2023-03-16T04:16:05.950Z,2.53
2023-03-16T04:18:46.037Z,2.33
2023-03-16T04:21:22.611Z,2.67
2023-03-16T04:23:49.868Z,2.50
2023-03-16T04:26:41.345Z,2.40
2023-03-16T04:29:07.844Z,2.38
2023-03-16T04:31:34.229Z,2.05
2023-03-16T04:34:04.677Z,2.45
2023-03-16T04:36:34.191Z,2.47
2023-03-16T04:39:00.657Z,2.10
2023-03-16T04:41:30.175Z,2.40
2023-03-16T04:43:58.130Z,2.15
2023-03-16T04:46:39.343Z,2.97
2023-03-16T04:49:09.154Z,2.33
2023-03-16T04:51:41.225Z,2.13
2023-03-16T04:54:08.127Z,3.03
2023-03-16T04:56:44.700Z,2.40
2023-03-16T04:59:11.267Z,2.10
2023-03-16T05:01:40.888Z,1.80
2023-03-16T05:04:15.030Z,2.15
2023-03-16T05:06:47.935Z,2.60
2023-03-16T05:09:14.396Z,2.00
2023-03-16T05:11:46.847Z,2.28
2023-03-16T05:14:13.282Z,1.90
2023-03-16T05:16:39.655Z,2.00
2023-03-16T05:19:08.838Z,2.45
2023-03-16T05:21:38.696Z,2.40
2023-03-16T05:24:06.005Z,1.95
2023-03-16T05:26:41.489Z,2.40
2023-03-16T05:29:07.881Z,2.00
2023-03-16T05:31:42.748Z,2.47
2023-03-16T05:34:09.114Z,2.30
2023-03-16T05:36:40.894Z,1.90
2023-03-16T05:39:10.257Z,1.80
2023-03-16T05:41:39.393Z,1.50
2023-03-16T05:44:06.213Z,2.00
2023-03-16T05:46:33.320Z,1.80
2023-03-16T05:49:00.210Z,2.15
2023-03-16T05:51:35.711Z,1.93
2023-03-16T05:54:02.165Z,2.22
2023-03-16T05:56:31.567Z,2.00
2023-03-16T05:59:01.191Z,1.90
2023-03-16T06:01:27.804Z,1.83
2023-03-16T06:03:57.209Z,2.07
2023-03-16T06:06:23.699Z,1.90
2023-03-16T06:08:50.109Z,2.10
2023-03-16T06:16:43.945Z,1.93
2023-03-16T06:19:13.492Z,1.50
2023-03-16T06:21:46.365Z,1.83
2023-03-16T06:24:15.918Z,1.70
2023-03-16T06:26:49.734Z,1.85
2023-03-16T06:29:18.943Z,2.00
2023-03-16T06:34:25.735Z,1.98
2023-03-16T06:36:53.720Z,1.90
2023-03-16T06:39:22.969Z,1.90
2023-03-16T06:41:49.407Z,1.33
2023-03-16T06:44:18.568Z,1.85
2023-03-16T06:46:47.984Z,2.15
2023-03-16T06:49:14.380Z,1.60
2023-03-16T06:51:44.358Z,1.77
2023-03-16T06:54:13.606Z,1.57
2023-03-16T06:56:48.465Z,1.70
2023-03-16T06:59:14.969Z,1.63
2023-03-16T07:01:42.271Z,1.50
2023-03-16T07:04:17.929Z,1.70
2023-03-16T07:06:44.300Z,1.77
2023-03-16T07:09:12.402Z,1.50
2023-03-16T07:11:41.905Z,1.30
2023-03-16T07:14:08.298Z,1.23
2023-03-16T07:16:48.357Z,1.52
2023-03-16T07:19:17.592Z,1.10
2023-03-16T07:21:46.296Z,1.50
2023-03-16T07:24:12.966Z,1.40
2023-03-16T07:29:25.927Z,1.38
2023-03-16T07:31:55.597Z,1.50
2023-03-16T07:34:25.091Z,1.40
2023-03-16T07:36:56.795Z,1.48
2023-03-16T07:39:26.241Z,1.75
2023-03-16T07:41:52.822Z,1.40
2023-03-16T07:44:22.288Z,1.70
2023-03-16T07:46:55.979Z,1.63
2023-03-16T07:49:25.542Z,1.20
2023-03-16T07:51:55.202Z,1.65
2023-03-16T07:54:21.573Z,1.92
2023-03-16T07:56:49.792Z,1.40
2023-03-16T07:59:21.201Z,1.58
2023-03-16T08:01:50.690Z,1.77
2023-03-16T08:04:17.076Z,1.88
2023-03-16T08:09:26.701Z,1.57
2023-03-16T08:11:56.846Z,1.73
2023-03-16T08:14:23.743Z,1.40
2023-03-16T08:16:54.891Z,1.50
2023-03-16T08:19:21.306Z,1.75
2023-03-16T08:22:00.711Z,1.27
2023-03-16T08:24:29.459Z,1.65
2023-03-16T08:27:05.704Z,1.30
2023-03-16T08:29:36.948Z,1.40
2023-03-16T08:32:03.575Z,1.55
2023-03-16T08:34:33.634Z,1.47
2023-03-16T08:37:02.472Z,1.65
2023-03-16T08:39:32.470Z,1.67
2023-03-16T08:41:58.870Z,1.73
2023-03-16T08:44:36.269Z,1.40
2023-03-16T08:47:07.762Z,1.30
2023-03-16T08:49:37.752Z,1.63
2023-03-16T08:52:05.248Z,1.83
2023-03-16T08:54:34.761Z,1.65
2023-03-16T08:57:04.475Z,1.35
2023-03-16T08:59:32.352Z,1.37
2023-03-16T09:02:00.552Z,1.67
2023-03-16T09:04:28.406Z,1.90
2023-03-16T09:07:11.662Z,1.70
2023-03-16T09:09:43.222Z,1.38
2023-03-16T09:12:12.676Z,1.43
2023-03-16T09:14:41.954Z,1.42
2023-03-16T09:17:13.682Z,1.50
2023-03-16T09:19:51.080Z,1.58
2023-03-16T09:22:21.551Z,1.00
2023-03-16T09:24:57.068Z,1.13
2023-03-16T09:27:23.608Z,1.90
2023-03-16T09:29:53.400Z,1.15
2023-03-16T09:32:23.147Z,1.60
2023-03-16T09:34:49.583Z,1.77
2023-03-16T09:37:20.990Z,1.47
2023-03-16T09:39:51.833Z,1.67
2023-03-16T09:42:37.730Z,1.70
2023-03-16T09:45:28.982Z,1.55
2023-03-16T09:48:03.022Z,1.52
2023-03-16T09:50:47.169Z,1.50
2023-03-16T09:53:38.422Z,1.20
2023-03-16T09:56:15.946Z,1.00
2023-03-16T09:58:42.660Z,1.58
2023-03-16T10:01:18.832Z,1.30
2023-03-16T10:04:06.102Z,1.60
2023-03-16T10:06:42.773Z,1.88
2023-03-16T10:09:47.426Z,1.27
2023-03-16T10:12:18.070Z,1.92
2023-03-16T10:15:12.399Z,1.73
2023-03-16T10:20:41.970Z,1.42
2023-03-16T10:23:23.449Z,1.75
2023-03-16T10:25:54.956Z,1.30
2023-03-16T10:28:35.122Z,1.38
2023-03-16T10:31:02.139Z,1.50
2023-03-16T10:33:37.608Z,1.45
2023-03-16T10:36:19.310Z,1.08
2023-03-16T10:39:01.082Z,1.30
2023-03-16T10:41:43.587Z,1.40
2023-03-16T10:44:27.435Z,1.03
2023-03-16T10:47:08.461Z,1.08
2023-03-16T10:49:49.192Z,1.30
2023-03-16T10:52:41.883Z,1.10
2023-03-16T10:55:23.721Z,1.23
2023-03-16T10:57:55.125Z,1.33
2023-03-16T11:00:46.914Z,1.17
2023-03-16T11:03:37.958Z,1.20
2023-03-16T11:06:35.154Z,1.02
2023-03-16T11:09:08.970Z,1.50
2023-03-16T11:11:40.491Z,1.57
2023-03-16T11:14:15.251Z,1.05
2023-03-16T11:17:16.736Z,1.48
2023-03-16T11:20:19.654Z,1.17
2023-03-16T11:22:48.384Z,1.15
2023-03-16T11:25:28.467Z,1.20
2023-03-16T11:28:36.068Z,1.00
2023-03-16T11:31:32.647Z,1.08
2023-03-16T11:34:07.006Z,0.88
2023-03-16T11:36:57.480Z,1.27
2023-03-16T11:42:37.165Z,1.20
2023-03-16T11:45:31.614Z,1.40
2023-03-16T11:48:39.043Z,1.05
2023-03-16T11:51:21.509Z,1.05
2023-03-16T11:54:03.147Z,1.10
2023-03-16T11:57:08.458Z,1.05
2023-03-16T12:00:02.013Z,1.05
2023-03-16T12:02:50.444Z,1.05
2023-03-16T12:05:45.071Z,1.15
2023-03-16T12:08:35.043Z,1.43
2023-03-16T12:11:13.796Z,1.20
2023-03-16T12:14:10.687Z,1.13
2023-03-16T12:16:51.743Z,0.63
2023-03-16T12:19:59.080Z,1.08
2023-03-16T12:22:44.679Z,1.07
2023-03-16T12:25:42.733Z,1.10
2023-03-16T12:28:24.353Z,1.27
2023-03-16T12:31:20.030Z,1.58
2023-03-16T12:33:55.686Z,1.23
2023-03-16T12:37:12.914Z,1.10
2023-03-16T12:40:02.554Z,1.17
2023-03-16T12:43:03.800Z,0.75
2023-03-16T12:45:52.135Z,0.80
2023-03-16T12:48:30.656Z,0.90
2023-03-16T12:51:22.765Z,0.83
2023-03-16T12:53:59.176Z,0.98
2023-03-16T12:56:48.882Z,1.08
2023-03-16T12:59:22.614Z,0.80
2023-03-16T13:01:52.276Z,1.10
2023-03-16T13:04:23.574Z,0.90
2023-03-16T13:07:01.332Z,0.80
2023-03-16T13:09:37.807Z,0.70
2023-03-16T13:12:10.552Z,0.82
2023-03-16T13:14:48.402Z,1.02
2023-03-16T13:17:17.633Z,0.57
2023-03-16T13:20:24.251Z,0.82
2023-03-16T13:23:18.902Z,1.05
2023-03-16T13:26:00.240Z,0.40
2023-03-16T13:28:39.185Z,0.70
2023-03-16T13:31:20.186Z,0.80
2023-03-16T13:33:51.221Z,0.50
2023-03-16T13:36:25.544Z,0.70
2023-03-16T13:39:24.408Z,0.60
2023-03-16T13:42:26.449Z,0.65
2023-03-16T13:45:16.190Z,0.40
2023-03-16T13:47:47.518Z,0.60
2023-03-16T13:50:16.003Z,0.70
2023-03-16T13:52:44.147Z,0.60
2023-03-16T13:55:24.872Z,0.90
2023-03-16T13:57:55.704Z,0.50
2023-03-16T14:00:29.622Z,0.70
2023-03-16T14:03:05.147Z,0.75
2023-03-16T14:05:37.630Z,0.55
2023-03-16T14:08:04.996Z,0.57
2023-03-16T14:10:36.939Z,0.70
2023-03-16T14:13:09.655Z,0.45
2023-03-16T14:15:39.045Z,0.60
2023-03-16T14:18:27.405Z,0.35
2023-03-16T14:23:43.891Z,0.40
2023-03-16T14:26:16.492Z,0.45
2023-03-16T14:29:16.983Z,0.40
2023-03-16T14:31:47.667Z,0.70
2023-03-16T14:34:29.688Z,0.70
2023-03-16T14:37:20.113Z,0.67
2023-03-16T14:40:01.645Z,0.60
2023-03-16T14:42:35.319Z,0.50
2023-03-16T14:45:15.069Z,0.40
2023-03-16T14:47:47.447Z,1.08
2023-03-16T14:50:19.841Z,0.40
2023-03-16T14:52:47.323Z,0.70
2023-03-16T14:55:28.449Z,0.50
2023-03-16T14:57:55.117Z,0.75
2023-03-16T15:00:23.695Z,0.70
2023-03-16T15:03:02.541Z,0.40
2023-03-16T15:06:00.653Z,0.40
2023-03-16T15:08:53.582Z,0.60
2023-03-16T15:11:21.704Z,0.50
2023-03-16T15:13:55.993Z,1.08
2023-03-16T15:16:23.001Z,0.50
2023-03-16T15:21:53.022Z,0.65
2023-03-16T15:24:26.613Z,0.63
2023-03-16T15:29:41.510Z,0.40
2023-03-16T15:32:13.302Z,0.60
2023-03-16T15:34:49.701Z,0.60
2023-03-16T15:37:18.589Z,0.50
2023-03-16T15:39:46.834Z,0.47
2023-03-16T15:42:18.474Z,0.30
2023-03-16T15:44:48.690Z,0.50
2023-03-16T15:47:18.059Z,0.40
2023-03-16T15:49:48.101Z,0.60
2023-03-16T15:52:35.017Z,0.40
2023-03-16T15:55:10.828Z,0.40
2023-03-16T15:57:37.185Z,0.40
2023-03-16T16:00:04.367Z,0.55
2023-03-16T16:02:33.311Z,0.45
2023-03-16T16:05:00.130Z,0.60
2023-03-16T16:07:29.806Z,0.40
2023-03-16T16:10:09.384Z,0.30
2023-03-16T16:12:35.911Z,0.38
2023-03-16T16:15:06.929Z,0.60
2023-03-16T16:17:50.674Z,0.50
2023-03-16T16:20:35.958Z,0.33
2023-03-16T16:23:10.756Z,0.80
2023-03-16T16:25:41.863Z,0.40
2023-03-16T16:28:34.787Z,0.50
2023-03-16T16:31:01.912Z,0.50
2023-03-16T16:33:36.016Z,0.50
2023-03-16T16:36:13.716Z,0.55
2023-03-16T16:38:40.351Z,0.52
2023-03-16T16:41:09.061Z,0.50
2023-03-16T16:43:42.639Z,0.52
2023-03-16T16:49:13.353Z,0.38
2023-03-16T16:54:29.581Z,0.57
2023-03-16T16:56:58.554Z,0.60
2023-03-16T16:59:33.128Z,1.40
2023-03-16T17:02:22.544Z,0.80
2023-03-16T17:04:54.514Z,0.80
2023-03-16T17:07:24.734Z,0.70
2023-03-16T17:09:58.749Z,0.85
2023-03-16T17:12:25.525Z,0.60
2023-03-16T17:14:52.002Z,1.10
2023-03-16T17:17:21.586Z,1.10
2023-03-16T17:19:51.596Z,1.25
2023-03-16T17:22:30.858Z,1.58
2023-03-16T17:24:57.414Z,1.20
2023-03-16T17:27:48.561Z,0.90
2023-03-16T17:30:27.653Z,1.40
2023-03-16T17:33:02.773Z,1.48
2023-03-16T17:35:32.917Z,1.17
2023-03-16T17:37:59.489Z,0.77
2023-03-16T17:40:25.946Z,1.17
2023-03-16T17:42:57.943Z,0.80
2023-03-16T17:45:27.693Z,0.70
2023-03-16T17:47:58.318Z,0.60
2023-03-16T17:50:31.385Z,0.80
2023-03-16T17:53:11.623Z,0.45
2023-03-16T17:58:26.878Z,0.47
2023-03-16T18:00:57.289Z,0.50
2023-03-16T18:03:30.760Z,0.97
2023-03-16T18:05:59.380Z,0.80
2023-03-16T18:08:37.733Z,0.60
2023-03-16T18:11:12.606Z,1.17
2023-03-16T18:13:42.386Z,0.82
2023-03-16T18:16:20.402Z,1.23
2023-03-16T18:18:46.943Z,1.02
2023-03-16T18:21:25.992Z,1.10
2023-03-16T18:23:53.914Z,0.85
2023-03-16T18:26:29.625Z,1.05
2023-03-16T18:28:59.772Z,1.00
2023-03-16T18:31:31.146Z,0.98
2023-03-16T18:34:07.139Z,1.00
2023-03-16T18:36:39.884Z,0.80
2023-03-16T18:39:16.076Z,1.13
2023-03-16T18:41:44.595Z,1.60
2023-03-16T18:44:19.989Z,1.52
2023-03-16T18:46:49.896Z,2.58
2023-03-16T18:49:29.632Z,1.65
2023-03-16T18:52:01.691Z,1.60
2023-03-16T18:54:33.727Z,1.60
2023-03-16T18:57:04.370Z,1.38
2023-03-16T18:59:32.167Z,1.58
2023-03-16T19:02:02.615Z,0.90
2023-03-16T19:04:32.646Z,1.52
2023-03-16T19:07:10.970Z,1.23
2023-03-16T19:09:44.987Z,1.63
2023-03-16T19:12:18.746Z,1.33
2023-03-16T19:14:48.253Z,1.23
2023-03-16T19:17:17.492Z,1.20
2023-03-16T19:19:51.259Z,0.87
2023-03-16T19:22:21.830Z,1.20
2023-03-16T19:25:03.372Z,1.63
2023-03-16T19:27:36.814Z,1.05
2023-03-16T19:30:04.271Z,1.00
2023-03-16T19:32:38.501Z,0.87
2023-03-16T19:35:20.830Z,0.52
2023-03-16T19:37:47.546Z,0.60
2023-03-16T19:43:09.089Z,0.60
2023-03-16T19:45:35.487Z,0.60
2023-03-16T19:48:04.667Z,0.77
2023-03-16T19:50:33.380Z,0.80
2023-03-16T19:53:00.108Z,0.90
2023-03-16T19:55:38.317Z,0.70
2023-03-16T19:58:10.013Z,0.80
2023-03-16T20:00:43.747Z,0.63
2023-03-16T20:03:15.906Z,0.75
2023-03-16T20:05:45.528Z,0.60
2023-03-16T20:08:26.502Z,0.70
2023-03-16T20:11:21.362Z,0.70
2023-03-16T20:13:48.607Z,0.80
2023-03-16T20:16:23.207Z,0.80
2023-03-16T20:18:55.809Z,0.60
2023-03-16T20:21:23.364Z,0.88
2023-03-16T20:23:52.609Z,0.80
2023-03-16T20:26:28.055Z,0.77
2023-03-16T20:28:58.017Z,0.77
2023-03-16T20:31:29.776Z,1.00
2023-03-16T20:33:59.586Z,1.05
2023-03-16T20:36:29.627Z,0.80
2023-03-16T20:39:03.022Z,1.08
2023-03-16T20:44:21.333Z,0.80
2023-03-16T20:46:51.895Z,0.73
2023-03-16T20:49:30.043Z,0.53
2023-03-16T20:51:58.674Z,0.60
2023-03-16T20:54:26.131Z,0.68
2023-03-16T20:56:52.646Z,0.50
2023-03-16T20:59:28.133Z,0.93
2023-03-16T21:01:57.326Z,0.83
2023-03-16T21:04:29.977Z,0.80
2023-03-16T21:06:59.356Z,0.85
2023-03-16T21:11:56.183Z,0.65
2023-03-16T21:14:24.098Z,0.60
2023-03-16T21:16:54.045Z,0.43
2023-03-16T21:19:26.055Z,0.98
2023-03-16T21:21:53.255Z,0.52
2023-03-16T21:24:29.085Z,0.60
2023-03-16T21:26:55.482Z,0.63
2023-03-16T21:29:26.082Z,0.47
2023-03-16T21:31:52.634Z,0.50
2023-03-16T21:34:32.966Z,0.50
2023-03-16T21:36:59.476Z,0.70
2023-03-16T21:39:29.491Z,0.57
2023-03-16T21:41:59.416Z,0.50
2023-03-16T21:44:26.013Z,0.90
2023-03-16T21:46:52.534Z,0.55
2023-03-16T21:49:22.054Z,1.02
2023-03-16T21:51:49.971Z,0.70
2023-03-16T21:54:19.562Z,0.70
2023-03-16T21:56:50.284Z,0.55
2023-03-16T21:59:17.110Z,0.73
2023-03-16T22:02:01.323Z,0.60
2023-03-16T22:04:33.673Z,0.77
2023-03-16T22:07:00.275Z,0.82
2023-03-16T22:09:30.210Z,0.68
2023-03-16T22:12:00.902Z,0.63
2023-03-16T22:14:30.453Z,0.73
2023-03-16T22:17:00.330Z,0.40
2023-03-16T22:19:32.118Z,0.80
2023-03-16T22:22:02.835Z,0.82
2023-03-16T22:24:30.857Z,0.70
2023-03-16T22:27:00.594Z,0.77
2023-03-16T22:29:35.653Z,0.77
2023-03-16T22:32:15.928Z,1.00
2023-03-16T22:34:48.207Z,0.80
2023-03-16T22:40:14.534Z,0.90
2023-03-16T22:43:04.302Z,0.53
2023-03-16T22:45:36.245Z,0.70
2023-03-16T22:48:16.605Z,0.75
2023-03-16T22:50:43.146Z,0.70
2023-03-16T22:53:19.925Z,0.80
2023-03-16T22:55:59.676Z,0.80
2023-03-16T22:58:38.153Z,0.70
2023-03-16T23:01:44.890Z,0.90
2023-03-16T23:04:26.576Z,0.88
2023-03-16T23:06:53.570Z,1.02
2023-03-16T23:09:24.090Z,0.90
2023-03-16T23:11:54.018Z,0.70
2023-03-16T23:14:50.246Z,0.95
2023-03-16T23:17:25.278Z,1.10
2023-03-16T23:19:54.485Z,1.02
2023-03-16T23:22:20.883Z,1.00
2023-03-16T23:24:52.263Z,1.02
2023-03-16T23:27:22.358Z,0.90
2023-03-16T23:29:51.192Z,1.02
2023-03-16T23:32:20.016Z,0.90
2023-03-16T23:35:06.425Z,1.20
2023-03-16T23:37:53.368Z,0.90
2023-03-16T23:40:21.636Z,0.90
2023-03-16T23:42:49.817Z,0.95
2023-03-16T23:45:31.730Z,0.98
2023-03-16T23:48:05.744Z,1.03
2023-03-16T23:50:35.562Z,1.05
2023-03-16T23:55:49.351Z,1.15
2023-03-16T23:58:16.274Z,1.13
